0VA7 weather

Flatrock Air Strip
Richmond, Virginia, United States

Public forecast

Using degrees Fahrenheit for public forecast. Weather courtesy of forecast.io.

Closest aviation weather report (METAR) to Flatrock Air Strip

Closest report is Chesterfield County Airport, 15.7 nm (29.0 km) ESE. Retrieved 2019/10/22 12:41 UTC (0 seconds ago):

KFCI 221241Z AUTO 15004KT 3SM -RA BR OVC004 14/14 A3000 RMK AO2 RAB27 P0001

Closest aviation forecast (TAF) to Flatrock Air Strip

Closest forecast is Richmond International Airport, 23.8 nm (44.1 km) E. Retrieved 2019/10/22 12:22 UTC (0 seconds ago):

TAF KRIC 221120Z 2212/2312 15005KT P6SM OVC004 FM221400 16006KT P6SM VCSH OVC007 FM221900 15009KT P6SM -SHRA OVC015 FM230000 25006KT P6SM SCT004 BKN007 FM230200 29005KT P6SM OVC020 FM230500 30005KT P6SM BKN150